Current | Forecast
Updated: 9:00 AM JST on April 22, 2018
Observed at Nagasaki Airport, Japan
Temperature 68°F
Humidity 68%
Dew Point 57°F
Wind SSE at 8 mph
Pressure 30.09 in (Falling)
Conditions Scattered Clouds
Visibility 6.2 miles
UV 0 out of 16
Clouds (FEW) : 3000 ft
Scattered Clouds (SCT) : 17000 ft
Yesterday's Maximum 77°F
Yesterday's Minimum 64°F approx.
Yesterday's Cooling Degree Days 6 approx.
Sunrise5:42 AM JST
Sunset6:54 PM JST
Moon Rise10:55 AM JST
Moon Set12:19 AM JST
Moon PhaseMoon Phase
Waxing Crescent
Raw METARMETAR RJFU 220000Z 16007KT 9999 FEW030 SCT170 20/14 Q1019


Monday
. High: 71° F.
Tuesday
. High: 75° F.
Wednesday
. High: 71° F.
Thursday
. High: 71° F.
Friday
. High: 66° F.
Saturday
. High: 77° F.
Sunday
. High: 80° F.
Monday
. High: 78° F.

Units: English | Metric

Find the Weather for any City, State or Zipcode, or Country:

U.S. State List | Severe Weather | Tropical Storms | Ski Conditions
United States | Canada | Central America | South America | Asia | Europe | Australia | Africa | Islands

Weather Underground

© Copyright 2018
The Weather Company, LLC